createdAt,value
2023-01-01T00:01:59.656Z,14.33
2023-01-01T00:04:28.971Z,14.87
2023-01-01T00:06:58.449Z,13.80
2023-01-01T00:09:43.950Z,14.00
2023-01-01T00:12:12.351Z,13.93
2023-01-01T00:14:43.013Z,13.70
2023-01-01T00:17:11.365Z,16.30
2023-01-01T00:19:39.754Z,17.93
2023-01-01T00:22:35.274Z,16.17
2023-01-01T00:24:57.513Z,16.33
2023-01-01T00:27:25.746Z,15.50
2023-01-01T00:29:53.822Z,16.03
2023-01-01T00:32:23.012Z,15.80
2023-01-01T00:34:51.381Z,15.33
2023-01-01T00:37:20.864Z,15.30
2023-01-01T00:39:48.959Z,14.93
2023-01-01T00:42:17.061Z,15.60
2023-01-01T00:44:45.209Z,15.37
2023-01-01T00:47:13.368Z,16.30
2023-01-01T00:49:41.496Z,16.73
2023-01-01T00:52:09.622Z,15.40
2023-01-01T00:54:39.216Z,14.07
2023-01-01T00:57:07.448Z,14.13
2023-01-01T00:59:35.697Z,12.30
2023-01-01T01:02:04.011Z,13.37
2023-01-01T01:04:32.225Z,12.90
2023-01-01T01:07:00.313Z,11.60
2023-01-01T01:09:28.666Z,12.83
2023-01-01T01:12:17.672Z,12.93
2023-01-01T01:14:46.275Z,12.30
2023-01-01T01:17:14.329Z,13.30
2023-01-01T01:19:42.513Z,13.00
2023-01-01T01:22:10.683Z,12.33
2023-01-01T01:24:38.791Z,12.97
2023-01-01T01:27:08.366Z,13.73
2023-01-01T01:29:36.490Z,13.17
2023-01-01T01:32:04.977Z,13.00
2023-01-01T01:34:33.088Z,13.07
2023-01-01T01:37:01.201Z,13.77
2023-01-01T01:39:29.366Z,13.30
2023-01-01T01:41:57.615Z,12.97
2023-01-01T01:44:55.921Z,13.73
2023-01-01T01:47:33.845Z,13.97
2023-01-01T01:50:08.414Z,13.23
2023-01-01T01:52:39.198Z,14.00
2023-01-01T01:55:11.038Z,13.90
2023-01-01T01:57:40.406Z,13.70
2023-01-01T02:00:12.085Z,12.53
2023-01-01T02:02:44.802Z,12.57
2023-01-01T02:05:13.490Z,13.67
2023-01-01T02:07:42.488Z,12.83
2023-01-01T02:10:11.123Z,13.60
2023-01-01T02:12:39.428Z,13.43
2023-01-01T02:15:10.765Z,14.23
2023-01-01T02:17:45.864Z,13.10
2023-01-01T02:20:30.962Z,13.13
2023-01-01T02:23:33.979Z,13.83
2023-01-01T02:26:15.274Z,9.53
2023-01-01T02:28:55.289Z,12.63
2023-01-01T02:31:27.933Z,12.07
2023-01-01T02:34:02.304Z,10.57
2023-01-01T02:36:34.790Z,10.67
2023-01-01T02:39:06.313Z,10.20
2023-01-01T02:41:40.147Z,8.97
2023-01-01T02:44:09.736Z,7.93
2023-01-01T02:46:38.018Z,9.33
2023-01-01T02:49:10.182Z,10.00
2023-01-01T02:51:52.360Z,8.03
2023-01-01T02:54:32.467Z,8.33
2023-01-01T02:57:10.598Z,8.03
2023-01-01T03:00:16.793Z,8.53
2023-01-01T03:02:56.028Z,9.00
2023-01-01T03:05:32.584Z,10.30
2023-01-01T03:08:08.128Z,11.93
2023-01-01T03:10:44.273Z,12.70
2023-01-01T03:13:19.207Z,11.60
2023-01-01T03:15:59.932Z,10.90
2023-01-01T03:18:35.477Z,10.77
2023-01-01T03:21:06.391Z,9.17
2023-01-01T03:23:38.767Z,9.27
2023-01-01T03:26:11.026Z,7.87
2023-01-01T03:28:44.952Z,7.77
2023-01-01T03:31:19.403Z,7.77
2023-01-01T03:33:50.649Z,7.10
2023-01-01T03:36:22.777Z,7.53
2023-01-01T03:38:54.302Z,7.73
2023-01-01T03:41:28.897Z,7.57
2023-01-01T03:44:06.354Z,6.67
2023-01-01T03:46:38.052Z,6.80
2023-01-01T03:49:08.065Z,5.87
2023-01-01T03:51:58.123Z,5.40
2023-01-01T03:54:36.214Z,5.47
2023-01-01T03:57:11.153Z,4.80
2023-01-01T03:59:45.087Z,5.30
2023-01-01T04:02:20.359Z,5.37
2023-01-01T04:04:49.401Z,5.18
2023-01-01T04:07:17.988Z,5.23
2023-01-01T04:09:51.058Z,5.25
2023-01-01T04:12:20.237Z,5.33
2023-01-01T04:14:48.970Z,4.78
2023-01-01T04:17:18.571Z,5.78
2023-01-01T04:19:53.139Z,4.72
2023-01-01T04:22:23.553Z,4.88
2023-01-01T04:24:52.063Z,5.32
2023-01-01T04:27:21.090Z,5.10
2023-01-01T04:29:49.221Z,6.28
2023-01-01T04:32:18.773Z,5.97
2023-01-01T04:34:46.952Z,5.20
2023-01-01T04:37:15.199Z,5.53
2023-01-01T04:39:43.401Z,5.60
2023-01-01T04:42:11.481Z,5.07
2023-01-01T04:44:39.702Z,5.97
2023-01-01T04:47:07.990Z,5.97
2023-01-01T04:49:38.143Z,6.07
2023-01-01T04:52:07.226Z,5.65
2023-01-01T04:54:35.295Z,6.18
2023-01-01T04:57:03.440Z,6.18
2023-01-01T04:59:31.857Z,6.13
2023-01-01T05:02:00.280Z,5.85
2023-01-01T05:04:28.549Z,6.45
2023-01-01T05:06:58.040Z,5.95
2023-01-01T05:09:26.122Z,6.53
2023-01-01T05:11:55.554Z,6.43
2023-01-01T05:14:23.666Z,6.20
2023-01-01T05:16:51.931Z,7.33
2023-01-01T05:19:20.143Z,7.10
2023-01-01T05:21:48.221Z,7.07
2023-01-01T05:24:17.767Z,6.80
2023-01-01T05:26:46.413Z,6.40
2023-01-01T05:29:16.888Z,6.37
2023-01-01T05:31:46.143Z,6.40
2023-01-01T05:34:14.503Z,5.90
2023-01-01T05:36:42.610Z,5.70
2023-01-01T05:39:13.212Z,6.47
2023-01-01T05:41:43.449Z,5.82
2023-01-01T05:44:12.052Z,6.70
2023-01-01T05:46:40.285Z,6.60
2023-01-01T05:49:11.755Z,6.10
2023-01-01T05:54:07.353Z,5.90
2023-01-01T05:56:35.549Z,5.45
2023-01-01T05:59:05.175Z,5.95
2023-01-01T06:01:37.623Z,6.13
2023-01-01T06:04:11.652Z,6.78
2023-01-01T06:06:39.748Z,7.15
2023-01-01T06:09:07.932Z,7.50
2023-01-01T06:11:36.078Z,7.80
2023-01-01T06:14:05.593Z,8.00
2023-01-01T06:16:33.657Z,8.27
2023-01-01T06:19:01.787Z,8.38
2023-01-01T06:21:30.607Z,8.60
2023-01-01T06:23:59.973Z,8.93
2023-01-01T06:26:30.539Z,9.27
2023-01-01T06:28:59.413Z,8.87
2023-01-01T06:31:34.051Z,8.80
2023-01-01T06:34:05.329Z,8.97
2023-01-01T06:36:33.674Z,9.33
2023-01-01T06:39:03.623Z,9.60
2023-01-01T06:41:31.929Z,9.90
2023-01-01T06:44:02.084Z,9.63
2023-01-01T06:46:33.323Z,9.03
2023-01-01T06:49:04.776Z,10.00
2023-01-01T06:51:34.697Z,10.23
2023-01-01T06:54:04.751Z,10.70
2023-01-01T06:56:33.290Z,9.33
2023-01-01T06:59:02.170Z,10.10
2023-01-01T07:01:35.878Z,11.20
2023-01-01T07:04:07.877Z,10.57
2023-01-01T07:06:36.681Z,10.63
2023-01-01T07:09:05.373Z,11.57
2023-01-01T07:11:34.167Z,11.93
2023-01-01T07:14:03.272Z,11.57
2023-01-01T07:16:32.817Z,12.23
2023-01-01T07:19:01.400Z,11.93
2023-01-01T07:21:31.743Z,12.43
2023-01-01T07:24:01.193Z,12.23
2023-01-01T07:26:30.714Z,12.13
2023-01-01T07:29:06.284Z,12.77
2023-01-01T07:31:38.580Z,13.07
2023-01-01T07:34:06.954Z,12.60
2023-01-01T07:36:35.355Z,15.43
2023-01-01T07:39:03.516Z,19.57
2023-01-01T07:41:31.776Z,18.17
2023-01-01T07:44:00.546Z,17.50
2023-01-01T07:46:29.531Z,15.83
2023-01-01T07:49:00.879Z,15.87
2023-01-01T07:51:29.070Z,16.90
2023-01-01T07:54:02.263Z,20.90
2023-01-01T07:56:35.081Z,16.97
2023-01-01T07:59:03.232Z,23.33
2023-01-01T08:01:31.644Z,18.00
2023-01-01T08:04:01.152Z,16.20
2023-01-01T08:06:29.258Z,12.43
2023-01-01T08:08:57.356Z,12.43
2023-01-01T08:11:25.556Z,13.20
2023-01-01T08:13:53.620Z,11.97
2023-01-01T08:16:21.850Z,12.00
2023-01-01T08:18:50.026Z,11.23
2023-01-01T08:21:19.616Z,10.67
2023-01-01T08:23:47.699Z,10.70
2023-01-01T08:26:17.917Z,9.87
2023-01-01T08:28:47.854Z,10.47
2023-01-01T08:31:19.090Z,9.83
2023-01-01T08:33:47.213Z,10.40
2023-01-01T08:36:16.532Z,10.47
2023-01-01T08:38:45.982Z,10.50
2023-01-01T08:41:14.255Z,10.30
2023-01-01T08:43:42.378Z,10.30
2023-01-01T08:46:10.602Z,10.20
2023-01-01T08:48:38.715Z,10.70
2023-01-01T08:51:07.318Z,10.00
2023-01-01T08:53:35.467Z,10.20
2023-01-01T08:56:08.041Z,10.00
2023-01-01T08:58:37.666Z,11.03
2023-01-01T09:01:06.978Z,9.47
2023-01-01T09:03:35.695Z,10.70
2023-01-01T09:06:03.905Z,10.23
2023-01-01T09:08:32.457Z,9.53
2023-01-01T09:11:02.905Z,9.80
2023-01-01T09:13:34.322Z,9.80
2023-01-01T09:16:02.503Z,9.60
2023-01-01T09:18:32.691Z,10.03
2023-01-01T09:21:00.752Z,9.97
2023-01-01T09:23:28.846Z,9.77
2023-01-01T09:25:58.301Z,9.17
2023-01-01T09:28:28.829Z,9.00
2023-01-01T09:30:58.397Z,8.93
2023-01-01T09:33:31.096Z,9.83
2023-01-01T09:36:13.302Z,9.97
2023-01-01T09:38:41.513Z,10.30
2023-01-01T09:41:21.778Z,10.60
2023-01-01T09:44:00.618Z,10.90
2023-01-01T09:46:32.056Z,11.07
2023-01-01T09:49:04.433Z,10.03
2023-01-01T09:51:48.762Z,11.47
2023-01-01T09:54:28.071Z,12.33
2023-01-01T09:56:59.250Z,13.07
2023-01-01T09:59:27.833Z,13.30
2023-01-01T10:02:01.037Z,13.53
2023-01-01T10:04:42.824Z,14.07
2023-01-01T10:07:17.361Z,13.30
2023-01-01T10:09:56.365Z,14.07
2023-01-01T10:12:36.110Z,13.20
2023-01-01T10:15:14.023Z,12.87
2023-01-01T10:17:47.734Z,13.27
2023-01-01T10:20:21.268Z,12.97
2023-01-01T10:22:53.820Z,13.17
2023-01-01T10:25:26.049Z,12.30
2023-01-01T10:27:59.816Z,13.20
2023-01-01T10:30:30.171Z,12.23
2023-01-01T10:33:00.643Z,12.63
2023-01-01T10:35:35.943Z,12.20
2023-01-01T10:38:05.644Z,12.90
2023-01-01T10:40:34.855Z,12.80
2023-01-01T10:43:04.401Z,10.33
2023-01-01T10:45:35.538Z,11.20
2023-01-01T10:48:17.228Z,12.55
2023-01-01T10:50:51.290Z,11.40
2023-01-01T10:53:28.778Z,10.27
2023-01-01T10:56:13.062Z,11.23
2023-01-01T10:58:46.510Z,10.07
2023-01-01T11:01:21.989Z,10.70
2023-01-01T11:04:00.653Z,11.60
2023-01-01T11:06:32.953Z,11.40
2023-01-01T11:09:07.080Z,10.98
2023-01-01T11:11:44.211Z,11.07
2023-01-01T11:14:21.869Z,10.70
2023-01-01T11:16:50.643Z,10.73
2023-01-01T11:19:25.136Z,10.02
2023-01-01T11:21:53.287Z,10.77
2023-01-01T11:24:23.087Z,9.80
2023-01-01T11:26:54.848Z,10.93
2023-01-01T11:29:28.629Z,10.60
2023-01-01T11:31:58.197Z,10.00
2023-01-01T11:34:34.169Z,9.73
2023-01-01T11:37:20.576Z,9.40
2023-01-01T11:39:51.495Z,9.65
2023-01-01T11:42:22.792Z,9.55
2023-01-01T11:44:54.394Z,9.57
2023-01-01T11:47:30.338Z,9.93
2023-01-01T11:50:05.922Z,10.35
2023-01-01T11:52:40.064Z,10.30
2023-01-01T11:55:19.914Z,10.07
2023-01-01T11:58:04.603Z,10.48
2023-01-01T12:00:37.195Z,10.00
2023-01-01T12:03:16.741Z,10.45
2023-01-01T12:05:51.759Z,10.93
2023-01-01T12:08:29.812Z,10.32
2023-01-01T12:11:04.542Z,10.50
2023-01-01T12:13:39.616Z,10.30
2023-01-01T12:16:13.434Z,10.13
2023-01-01T12:18:47.998Z,9.27
2023-01-01T12:21:24.407Z,9.63
2023-01-01T12:23:52.884Z,10.63
2023-01-01T12:26:25.653Z,9.65
2023-01-01T12:29:28.934Z,9.77
2023-01-01T12:32:05.693Z,9.57
2023-01-01T12:34:40.101Z,9.13
2023-01-01T12:37:34.523Z,9.32
2023-01-01T12:40:38.771Z,9.05
2023-01-01T12:43:11.208Z,9.10
2023-01-01T12:46:05.537Z,9.50
2023-01-01T12:48:55.281Z,8.93
2023-01-01T12:51:37.246Z,8.48
2023-01-01T12:54:36.304Z,8.48
2023-01-01T12:57:10.784Z,8.90
2023-01-01T12:59:44.865Z,8.82
2023-01-01T13:02:17.752Z,8.02
2023-01-01T13:04:48.736Z,8.20
2023-01-01T13:07:25.077Z,8.40
2023-01-01T13:09:54.960Z,9.45
2023-01-01T13:12:25.577Z,8.32
2023-01-01T13:14:53.736Z,8.98
2023-01-01T13:17:23.986Z,8.27
2023-01-01T13:19:59.121Z,7.90
2023-01-01T13:22:44.371Z,7.80
2023-01-01T13:25:25.151Z,7.80
2023-01-01T13:28:12.148Z,7.68
2023-01-01T13:30:53.052Z,7.95
2023-01-01T13:33:27.287Z,8.43
2023-01-01T13:36:38.167Z,7.70
2023-01-01T13:39:08.431Z,8.88
2023-01-01T13:41:44.542Z,8.13
2023-01-01T13:44:18.680Z,8.07
2023-01-01T13:47:09.911Z,8.65
2023-01-01T13:49:54.606Z,7.82
2023-01-01T13:52:53.835Z,8.25
2023-01-01T13:55:52.699Z,8.60
2023-01-01T13:58:48.506Z,8.80
2023-01-01T14:01:36.809Z,8.43
2023-01-01T14:04:13.414Z,8.77
2023-01-01T14:06:46.389Z,9.02
2023-01-01T14:09:15.798Z,8.95
2023-01-01T14:11:44.185Z,10.25
2023-01-01T14:14:28.401Z,8.50
2023-01-01T14:17:00.200Z,8.15
2023-01-01T14:19:29.247Z,8.25
2023-01-01T14:21:57.876Z,8.50
2023-01-01T14:24:27.578Z,8.23
2023-01-01T14:26:56.573Z,7.85
2023-01-01T14:29:29.195Z,7.85
2023-01-01T14:32:01.141Z,7.45
2023-01-01T14:34:32.523Z,8.23
2023-01-01T14:37:02.523Z,8.20
2023-01-01T14:39:32.133Z,7.80
2023-01-01T14:42:03.855Z,7.82
2023-01-01T14:44:37.266Z,7.97
2023-01-01T14:47:06.477Z,8.20
2023-01-01T14:49:38.397Z,7.72
2023-01-01T14:52:10.468Z,7.50
2023-01-01T14:54:42.381Z,7.90
2023-01-01T14:57:15.112Z,7.78
2023-01-01T14:59:49.469Z,8.23
2023-01-01T15:02:22.290Z,8.18
2023-01-01T15:04:51.027Z,7.82
2023-01-01T15:07:23.293Z,7.70
2023-01-01T15:09:52.075Z,8.45
2023-01-01T15:12:21.129Z,9.10
2023-01-01T15:14:52.786Z,8.75
2023-01-01T15:17:22.712Z,8.88
2023-01-01T15:20:03.392Z,9.13
2023-01-01T15:22:33.917Z,9.63
2023-01-01T15:25:03.363Z,9.75
2023-01-01T15:27:34.132Z,9.82
2023-01-01T15:30:11.650Z,9.68
2023-01-01T15:32:42.288Z,10.18
2023-01-01T15:35:27.752Z,9.38
2023-01-01T15:38:03.466Z,9.98
2023-01-01T15:40:36.111Z,9.50
2023-01-01T15:43:15.625Z,9.63
2023-01-01T15:45:54.001Z,9.73
2023-01-01T15:48:27.932Z,9.45
2023-01-01T15:51:06.365Z,9.32
2023-01-01T15:53:47.158Z,9.15
2023-01-01T15:56:16.389Z,10.83
2023-01-01T15:58:51.625Z,11.45
2023-01-01T16:01:24.062Z,11.15
2023-01-01T16:03:58.949Z,10.73
2023-01-01T16:06:27.264Z,12.43
2023-01-01T16:08:55.392Z,10.73
2023-01-01T16:11:23.655Z,11.50
2023-01-01T16:13:51.704Z,11.82
2023-01-01T16:16:26.760Z,12.13
2023-01-01T16:18:56.505Z,11.97
2023-01-01T16:21:27.834Z,12.10
2023-01-01T16:23:56.533Z,11.90
2023-01-01T16:26:24.579Z,12.00
2023-01-01T16:28:53.148Z,11.80
2023-01-01T16:31:28.024Z,12.47
2023-01-01T16:33:58.658Z,12.87
2023-01-01T16:36:29.278Z,13.50
2023-01-01T16:39:05.269Z,13.33
2023-01-01T16:41:33.480Z,14.57
2023-01-01T16:44:01.600Z,14.57
2023-01-01T16:46:33.659Z,13.57
2023-01-01T16:49:02.042Z,14.13
2023-01-01T16:51:33.849Z,13.77
2023-01-01T16:54:02.034Z,14.40
2023-01-01T16:56:30.485Z,13.57
2023-01-01T16:59:03.292Z,13.73
2023-01-01T17:01:33.483Z,13.70
2023-01-01T17:04:01.750Z,12.07
2023-01-01T17:06:29.902Z,12.13
2023-01-01T17:08:57.996Z,12.73
2023-01-01T17:11:26.108Z,12.60
2023-01-01T17:13:54.212Z,12.00
2023-01-01T17:16:27.290Z,11.27
2023-01-01T17:19:17.258Z,10.80
2023-01-01T17:21:47.724Z,10.00
2023-01-01T17:24:16.624Z,11.10
2023-01-01T17:26:44.911Z,11.67
2023-01-01T17:29:12.963Z,12.40
2023-01-01T17:31:41.069Z,11.67
2023-01-01T17:34:14.299Z,12.37
2023-01-01T17:36:43.713Z,12.73
2023-01-01T17:39:12.506Z,12.30
2023-01-01T17:41:41.104Z,13.27
2023-01-01T17:44:09.536Z,12.87
2023-01-01T17:46:37.862Z,14.60
2023-01-01T17:49:06.569Z,12.43
2023-01-01T17:51:36.008Z,13.53
2023-01-01T17:54:06.520Z,13.57
2023-01-01T17:56:34.622Z,12.90
2023-01-01T17:59:04.411Z,13.37
2023-01-01T18:01:35.498Z,14.13
2023-01-01T18:04:06.306Z,13.53
2023-01-01T18:06:41.511Z,14.47
2023-01-01T18:09:12.762Z,14.60
2023-01-01T18:11:41.863Z,15.37
2023-01-01T18:14:10.366Z,16.20
2023-01-01T18:16:40.497Z,17.33
2023-01-01T18:19:08.834Z,17.90
2023-01-01T18:21:38.334Z,17.30
2023-01-01T18:24:12.055Z,16.50
2023-01-01T18:26:40.172Z,17.67
2023-01-01T18:29:08.367Z,19.03
2023-01-01T18:31:37.069Z,19.00
2023-01-01T18:34:07.063Z,20.67
2023-01-01T18:36:36.233Z,20.33
2023-01-01T18:39:14.575Z,17.97
2023-01-01T18:42:19.257Z,17.10
2023-01-01T18:44:47.821Z,19.13
2023-01-01T18:47:17.746Z,17.23
2023-01-01T18:49:49.887Z,17.53
2023-01-01T18:52:25.746Z,16.50
2023-01-01T18:55:04.126Z,18.73
2023-01-01T18:57:32.935Z,19.13
2023-01-01T19:00:02.059Z,19.87
2023-01-01T19:02:38.120Z,20.10
2023-01-01T19:05:19.013Z,21.43
2023-01-01T19:07:53.006Z,22.53
2023-01-01T19:10:22.527Z,21.60
2023-01-01T19:12:54.985Z,20.83
2023-01-01T19:15:23.773Z,18.80
2023-01-01T19:17:54.843Z,17.47
2023-01-01T19:20:24.814Z,16.20
2023-01-01T19:22:53.025Z,17.57
2023-01-01T19:25:36.124Z,16.27
2023-01-01T19:28:35.709Z,16.47
2023-01-01T19:31:05.485Z,17.47
2023-01-01T19:33:33.675Z,17.20
2023-01-01T19:36:01.900Z,16.73
2023-01-01T19:38:29.960Z,17.67
2023-01-01T19:40:59.483Z,17.27
2023-01-01T19:43:27.664Z,17.93
2023-01-01T19:45:55.859Z,19.40
2023-01-01T19:48:23.958Z,22.03
2023-01-01T19:50:52.396Z,19.53
2023-01-01T19:53:20.427Z,18.20
2023-01-01T19:55:48.604Z,21.23
2023-01-01T19:58:19.894Z,21.47
2023-01-01T20:00:48.171Z,21.43
2023-01-01T20:03:52.305Z,20.93
2023-01-01T20:06:05.016Z,20.83
2023-01-01T20:08:33.139Z,21.27
2023-01-01T20:11:01.581Z,21.30
2023-01-01T20:13:31.121Z,20.27
2023-01-01T20:15:59.491Z,22.43
2023-01-01T20:18:27.611Z,23.30
2023-01-01T20:21:12.989Z,23.67
2023-01-01T20:23:41.919Z,24.70
2023-01-01T20:26:10.301Z,24.83
2023-01-01T20:28:57.407Z,26.80
2023-01-01T20:31:25.557Z,25.00
2023-01-01T20:33:53.647Z,23.93
2023-01-01T20:36:39.213Z,23.87
2023-01-01T20:39:07.334Z,22.53
2023-01-01T20:41:35.588Z,22.80
2023-01-01T20:44:05.073Z,23.70
2023-01-01T20:46:36.243Z,22.53
2023-01-01T20:49:04.466Z,23.87
2023-01-01T20:51:32.623Z,24.60
2023-01-01T20:54:00.800Z,24.70
2023-01-01T20:56:29.029Z,25.20
2023-01-01T20:59:01.820Z,26.07
2023-01-01T21:01:37.385Z,26.30
2023-01-01T21:04:05.962Z,25.27
2023-01-01T21:06:34.269Z,25.50
2023-01-01T21:09:05.076Z,26.23
2023-01-01T21:11:33.294Z,25.63
2023-01-01T21:14:01.553Z,25.33
2023-01-01T21:16:33.734Z,25.80
2023-01-01T21:19:04.770Z,27.23
2023-01-01T21:21:42.265Z,29.13
2023-01-01T21:24:21.554Z,28.13
2023-01-01T21:26:51.818Z,29.87
2023-01-01T21:29:22.492Z,30.03
2023-01-01T21:31:54.117Z,28.33
2023-01-01T21:34:35.721Z,29.67
2023-01-01T21:37:14.753Z,29.30
2023-01-01T21:39:42.994Z,29.80
2023-01-01T21:42:24.549Z,29.47
2023-01-01T21:44:57.759Z,30.83
2023-01-01T21:47:26.975Z,30.60
2023-01-01T21:49:57.514Z,31.37
2023-01-01T21:52:26.303Z,31.27
2023-01-01T21:54:55.772Z,32.00
2023-01-01T21:57:25.905Z,30.77
2023-01-01T21:59:54.923Z,32.27
2023-01-01T22:02:38.485Z,33.37
2023-01-01T22:05:30.830Z,34.67
2023-01-01T22:08:00.158Z,36.87
2023-01-01T22:10:35.389Z,35.43
2023-01-01T22:13:03.786Z,35.53
2023-01-01T22:15:39.325Z,36.07
2023-01-01T22:18:27.102Z,35.50
2023-01-01T22:20:58.016Z,37.07
2023-01-01T22:23:41.699Z,37.73
2023-01-01T22:26:18.711Z,38.27
2023-01-01T22:28:50.214Z,39.10
2023-01-01T22:31:21.539Z,39.07
2023-01-01T22:33:51.045Z,38.93
2023-01-01T22:36:25.524Z,41.13
2023-01-01T22:38:55.660Z,40.00
2023-01-01T22:41:23.795Z,40.13
2023-01-01T22:43:58.038Z,41.07
2023-01-01T22:46:30.284Z,42.37
2023-01-01T22:49:01.142Z,42.67
2023-01-01T22:51:38.538Z,42.43
2023-01-01T22:54:06.807Z,43.23
2023-01-01T22:56:35.012Z,42.80
2023-01-01T22:59:05.106Z,41.73
2023-01-01T23:01:33.239Z,44.30
2023-01-01T23:04:01.408Z,45.37
2023-01-01T23:06:31.065Z,48.00
2023-01-01T23:08:59.407Z,49.53
2023-01-01T23:11:28.635Z,53.47
2023-01-01T23:14:22.671Z,51.47
2023-01-01T23:16:50.877Z,52.83
2023-01-01T23:19:20.098Z,54.83
2023-01-01T23:21:49.606Z,58.07
2023-01-01T23:24:21.196Z,65.17
2023-01-01T23:26:50.646Z,65.60
2023-01-01T23:29:20.275Z,66.57
2023-01-01T23:31:49.725Z,66.97
2023-01-01T23:34:18.336Z,68.03
2023-01-01T23:36:46.689Z,68.83
2023-01-01T23:39:16.128Z,67.97
2023-01-01T23:41:44.203Z,66.40
2023-01-01T23:44:12.358Z,62.87
2023-01-01T23:46:40.929Z,63.57
2023-01-01T23:49:09.447Z,65.07
2023-01-01T23:51:39.341Z,65.77
2023-01-01T23:54:07.476Z,67.43
2023-01-01T23:56:37.142Z,67.37
2023-01-01T23:59:05.368Z,67.13
